sensor_id;sensor_type;location;lat;lon;timestamp;pressure;altitude;pressure_sealevel;temperature;humidity
23229;BME280;11783;50.350;6.576;2023-06-24T00:02:23;97172.50;;;17.58;77.89
23229;BME280;11783;50.350;6.576;2023-06-24T00:04:49;97175.72;;;17.54;78.29
23229;BME280;11783;50.350;6.576;2023-06-24T00:07:14;97169.78;;;17.52;77.51
23229;BME280;11783;50.350;6.576;2023-06-24T00:09:40;97169.25;;;17.50;77.41
23229;BME280;11783;50.350;6.576;2023-06-24T00:12:06;97170.28;;;17.44;77.48
23229;BME280;11783;50.350;6.576;2023-06-24T00:14:31;97165.47;;;17.46;76.86
23229;BME280;11783;50.350;6.576;2023-06-24T00:16:57;97169.75;;;17.47;77.03
23229;BME280;11783;50.350;6.576;2023-06-24T00:19:26;97167.59;;;17.44;77.26
23229;BME280;11783;50.350;6.576;2023-06-24T00:21:52;97168.41;;;17.40;76.75
23229;BME280;11783;50.350;6.576;2023-06-24T00:24:21;97162.47;;;17.33;77.23
23229;BME280;11783;50.350;6.576;2023-06-24T00:26:53;97162.75;;;17.36;77.69
23229;BME280;11783;50.350;6.576;2023-06-24T00:29:19;97165.94;;;17.28;77.54
23229;BME280;11783;50.350;6.576;2023-06-24T00:31:44;97162.16;;;17.24;77.93
23229;BME280;11783;50.350;6.576;2023-06-24T00:34:10;97161.34;;;17.18;77.58
23229;BME280;11783;50.350;6.576;2023-06-24T00:36:35;97156.22;;;17.12;78.15
23229;BME280;11783;50.350;6.576;2023-06-24T00:39:01;97161.88;;;17.15;77.82
23229;BME280;11783;50.350;6.576;2023-06-24T00:41:29;97156.44;;;17.05;78.17
23229;BME280;11783;50.350;6.576;2023-06-24T00:43:55;97151.59;;;17.07;77.34
23229;BME280;11783;50.350;6.576;2023-06-24T00:46:23;97158.31;;;17.05;77.51
23229;BME280;11783;50.350;6.576;2023-06-24T00:48:54;97161.78;;;17.00;77.75
23229;BME280;11783;50.350;6.576;2023-06-24T00:51:20;97158.00;;;16.96;77.80
23229;BME280;11783;50.350;6.576;2023-06-24T00:53:47;97162.53;;;16.90;77.92
23229;BME280;11783;50.350;6.576;2023-06-24T00:56:16;97153.38;;;16.86;77.70
23229;BME280;11783;50.350;6.576;2023-06-24T00:58:44;97153.91;;;16.83;78.18
23229;BME280;11783;50.350;6.576;2023-06-24T01:01:09;97154.16;;;16.82;78.31
23229;BME280;11783;50.350;6.576;2023-06-24T01:03:36;97161.41;;;16.81;77.95
23229;BME280;11783;50.350;6.576;2023-06-24T01:06:02;97156.84;;;16.77;78.10
23229;BME280;11783;50.350;6.576;2023-06-24T01:08:28;97165.91;;;16.71;78.54
23229;BME280;11783;50.350;6.576;2023-06-24T01:10:53;97158.66;;;16.71;78.51
23229;BME280;11783;50.350;6.576;2023-06-24T01:13:19;97161.81;;;16.63;78.64
23229;BME280;11783;50.350;6.576;2023-06-24T01:15:46;97164.19;;;16.59;78.17
23229;BME280;11783;50.350;6.576;2023-06-24T01:18:38;97152.59;;;16.54;78.69
23229;BME280;11783;50.350;6.576;2023-06-24T01:21:03;97159.00;;;16.48;78.92
23229;BME280;11783;50.350;6.576;2023-06-24T01:26:48;97157.06;;;16.38;79.53
23229;BME280;11783;50.350;6.576;2023-06-24T01:32:33;97160.69;;;16.22;79.75
23229;BME280;11783;50.350;6.576;2023-06-24T01:35:11;97158.53;;;16.19;80.49
23229;BME280;11783;50.350;6.576;2023-06-24T01:37:42;97164.38;;;16.16;79.97
23229;BME280;11783;50.350;6.576;2023-06-24T01:40:25;97161.38;;;16.07;80.36
23229;BME280;11783;50.350;6.576;2023-06-24T01:42:51;97151.75;;;16.11;80.51
23229;BME280;11783;50.350;6.576;2023-06-24T01:45:23;97161.38;;;16.07;79.84
23229;BME280;11783;50.350;6.576;2023-06-24T01:47:57;97159.53;;;16.13;79.82
23229;BME280;11783;50.350;6.576;2023-06-24T01:50:25;97161.66;;;16.11;79.83
23229;BME280;11783;50.350;6.576;2023-06-24T01:52:52;97157.63;;;16.08;79.25
23229;BME280;11783;50.350;6.576;2023-06-24T01:55:20;97157.88;;;16.07;78.97
23229;BME280;11783;50.350;6.576;2023-06-24T01:57:48;97161.09;;;16.03;78.55
23229;BME280;11783;50.350;6.576;2023-06-24T02:00:15;97161.28;;;15.97;79.51
23229;BME280;11783;50.350;6.576;2023-06-24T02:02:42;97156.97;;;15.96;78.70
23229;BME280;11783;50.350;6.576;2023-06-24T02:05:09;97160.16;;;15.93;78.81
23229;BME280;11783;50.350;6.576;2023-06-24T02:07:36;97156.13;;;15.90;79.51
23229;BME280;11783;50.350;6.576;2023-06-24T02:10:03;97162.00;;;15.87;79.37
23229;BME280;11783;50.350;6.576;2023-06-24T02:12:29;97157.44;;;15.88;81.15
23229;BME280;11783;50.350;6.576;2023-06-24T02:14:56;97158.22;;;15.83;80.64
23229;BME280;11783;50.350;6.576;2023-06-24T02:17:24;97155.97;;;15.75;80.96
23229;BME280;11783;50.350;6.576;2023-06-24T02:19:51;97160.47;;;15.69;80.81
23229;BME280;11783;50.350;6.576;2023-06-24T02:22:18;97152.88;;;15.61;81.03
23229;BME280;11783;50.350;6.576;2023-06-24T02:24:44;97155.00;;;15.59;82.80
23229;BME280;11783;50.350;6.576;2023-06-24T02:27:10;97153.88;;;15.55;81.91
23229;BME280;11783;50.350;6.576;2023-06-24T02:29:38;97146.34;;;15.52;81.88
23229;BME280;11783;50.350;6.576;2023-06-24T02:32:05;97154.63;;;15.51;83.01
23229;BME280;11783;50.350;6.576;2023-06-24T02:34:31;97147.81;;;15.43;82.76
23229;BME280;11783;50.350;6.576;2023-06-24T02:36:56;97153.69;;;15.40;82.57
23229;BME280;11783;50.350;6.576;2023-06-24T02:39:21;97148.59;;;15.38;81.46
23229;BME280;11783;50.350;6.576;2023-06-24T02:41:48;97150.47;;;15.38;81.53
23229;BME280;11783;50.350;6.576;2023-06-24T02:44:15;97160.63;;;15.36;81.58
23229;BME280;11783;50.350;6.576;2023-06-24T02:46:42;97155.25;;;15.36;81.93
23229;BME280;11783;50.350;6.576;2023-06-24T02:49:09;97163.59;;;15.39;81.84
23229;BME280;11783;50.350;6.576;2023-06-24T02:51:36;97160.38;;;15.37;81.99
23229;BME280;11783;50.350;6.576;2023-06-24T02:54:02;97159.81;;;15.35;82.21
23229;BME280;11783;50.350;6.576;2023-06-24T02:56:28;97153.84;;;15.28;83.47
23229;BME280;11783;50.350;6.576;2023-06-24T02:58:53;97150.78;;;15.20;83.11
23229;BME280;11783;50.350;6.576;2023-06-24T03:01:20;97158.50;;;15.16;83.06
23229;BME280;11783;50.350;6.576;2023-06-24T03:03:52;97159.81;;;15.13;82.38
23229;BME280;11783;50.350;6.576;2023-06-24T03:06:18;97168.16;;;15.17;82.20
23229;BME280;11783;50.350;6.576;2023-06-24T03:08:45;97166.28;;;15.18;83.02
23229;BME280;11783;50.350;6.576;2023-06-24T03:11:14;97172.16;;;15.14;83.58
23229;BME280;11783;50.350;6.576;2023-06-24T03:13:39;97174.53;;;15.11;83.17
23229;BME280;11783;50.350;6.576;2023-06-24T03:16:05;97181.19;;;15.08;83.88
23229;BME280;11783;50.350;6.576;2023-06-24T03:18:30;97169.78;;;14.96;84.07
23229;BME280;11783;50.350;6.576;2023-06-24T03:20:55;97165.72;;;14.94;84.43
23229;BME280;11783;50.350;6.576;2023-06-24T03:23:21;97167.84;;;14.92;84.13
23229;BME280;11783;50.350;6.576;2023-06-24T03:25:46;97172.28;;;14.86;83.79
23229;BME280;11783;50.350;6.576;2023-06-24T03:28:12;97170.22;;;14.88;83.39
23229;BME280;11783;50.350;6.576;2023-06-24T03:30:37;97172.28;;;14.86;84.04
23229;BME280;11783;50.350;6.576;2023-06-24T03:33:02;97169.97;;;14.90;83.62
23229;BME280;11783;50.350;6.576;2023-06-24T03:35:28;97165.88;;;14.87;83.25
23229;BME280;11783;50.350;6.576;2023-06-24T03:37:55;97166.94;;;14.86;83.12
23229;BME280;11783;50.350;6.576;2023-06-24T03:40:20;97174.97;;;14.86;82.91
23229;BME280;11783;50.350;6.576;2023-06-24T03:42:46;97169.72;;;14.91;82.45
23229;BME280;11783;50.350;6.576;2023-06-24T03:45:11;97177.75;;;14.91;82.55
23229;BME280;11783;50.350;6.576;2023-06-24T03:47:36;97168.56;;;14.87;82.92
23229;BME280;11783;50.350;6.576;2023-06-24T03:50:04;97170.13;;;14.83;82.88
23229;BME280;11783;50.350;6.576;2023-06-24T03:52:29;97175.72;;;14.81;83.40
23229;BME280;11783;50.350;6.576;2023-06-24T03:54:55;97166.00;;;14.75;83.39
23229;BME280;11783;50.350;6.576;2023-06-24T03:57:20;97170.25;;;14.71;83.76
23229;BME280;11783;50.350;6.576;2023-06-24T03:59:46;97170.94;;;14.67;84.43
23229;BME280;11783;50.350;6.576;2023-06-24T04:02:11;97182.16;;;14.64;84.26
23229;BME280;11783;50.350;6.576;2023-06-24T04:04:39;97182.91;;;14.59;85.09
23229;BME280;11783;50.350;6.576;2023-06-24T04:07:04;97180.97;;;14.54;85.10
23229;BME280;11783;50.350;6.576;2023-06-24T04:09:35;97173.91;;;14.48;85.79
23229;BME280;11783;50.350;6.576;2023-06-24T04:12:01;97174.03;;;14.42;85.96
23229;BME280;11783;50.350;6.576;2023-06-24T04:14:26;97178.19;;;14.33;86.61
23229;BME280;11783;50.350;6.576;2023-06-24T04:16:51;97179.38;;;14.25;86.71
23229;BME280;11783;50.350;6.576;2023-06-24T04:19:17;97181.75;;;14.21;87.27
23229;BME280;11783;50.350;6.576;2023-06-24T04:21:42;97180.03;;;14.15;87.52
23229;BME280;11783;50.350;6.576;2023-06-24T04:24:08;97184.00;;;14.13;87.32
23229;BME280;11783;50.350;6.576;2023-06-24T04:26:33;97186.09;;;14.11;87.40
23229;BME280;11783;50.350;6.576;2023-06-24T04:28:59;97185.53;;;14.09;88.14
23229;BME280;11783;50.350;6.576;2023-06-24T04:31:24;97183.59;;;14.04;88.50
23229;BME280;11783;50.350;6.576;2023-06-24T04:33:50;97182.22;;;14.02;88.92
23229;BME280;11783;50.350;6.576;2023-06-24T04:36:16;97184.31;;;14.00;89.23
23229;BME280;11783;50.350;6.576;2023-06-24T04:38:41;97186.19;;;13.99;89.50
23229;BME280;11783;50.350;6.576;2023-06-24T04:41:06;97190.72;;;13.99;89.04
23229;BME280;11783;50.350;6.576;2023-06-24T04:43:32;97195.25;;;13.98;89.34
23229;BME280;11783;50.350;6.576;2023-06-24T04:45:57;97194.44;;;13.98;90.03
23229;BME280;11783;50.350;6.576;2023-06-24T04:48:24;97186.44;;;13.98;89.98
23229;BME280;11783;50.350;6.576;2023-06-24T04:50:49;97194.44;;;13.98;89.60
23229;BME280;11783;50.350;6.576;2023-06-24T04:53:15;97188.28;;;13.97;88.87
23229;BME280;11783;50.350;6.576;2023-06-24T04:55:40;97198.25;;;14.02;89.90
23229;BME280;11783;50.350;6.576;2023-06-24T04:58:06;97188.84;;;13.99;90.85
23229;BME280;11783;50.350;6.576;2023-06-24T05:00:31;97191.78;;;13.98;91.32
23229;BME280;11783;50.350;6.576;2023-06-24T05:02:56;97192.59;;;13.98;91.49
23229;BME280;11783;50.350;6.576;2023-06-24T05:05:22;97190.72;;;13.99;91.18
23229;BME280;11783;50.350;6.576;2023-06-24T05:07:47;97187.22;;;13.98;90.80
23229;BME280;11783;50.350;6.576;2023-06-24T05:10:13;97188.59;;;14.01;89.90
23229;BME280;11783;50.350;6.576;2023-06-24T05:12:39;97192.16;;;14.06;90.63
23229;BME280;11783;50.350;6.576;2023-06-24T05:15:05;97194.91;;;14.11;91.29
23229;BME280;11783;50.350;6.576;2023-06-24T05:17:31;97187.72;;;14.12;92.07
23229;BME280;11783;50.350;6.576;2023-06-24T05:19:56;97184.00;;;14.13;92.75
23229;BME280;11783;50.350;6.576;2023-06-24T05:22:22;97175.16;;;14.12;93.49
23229;BME280;11783;50.350;6.576;2023-06-24T05:24:47;97172.72;;;14.11;93.40
23229;BME280;11783;50.350;6.576;2023-06-24T05:27:12;97179.13;;;14.10;92.58
23229;BME280;11783;50.350;6.576;2023-06-24T05:29:38;97179.47;;;14.13;93.55
23229;BME280;11783;50.350;6.576;2023-06-24T05:32:04;97176.31;;;14.16;91.59
23229;BME280;11783;50.350;6.576;2023-06-24T05:34:30;97172.66;;;14.22;90.14
23229;BME280;11783;50.350;6.576;2023-06-24T05:36:55;97185.53;;;14.25;90.68
23229;BME280;11783;50.350;6.576;2023-06-24T05:39:21;97180.06;;;14.32;90.18
23229;BME280;11783;50.350;6.576;2023-06-24T05:41:46;97179.31;;;14.37;91.02
23229;BME280;11783;50.350;6.576;2023-06-24T05:44:14;97183.94;;;14.41;90.11
23229;BME280;11783;50.350;6.576;2023-06-24T05:46:39;97184.03;;;14.46;91.27
23229;BME280;11783;50.350;6.576;2023-06-24T05:49:05;97184.84;;;14.47;90.83
23229;BME280;11783;50.350;6.576;2023-06-24T05:51:30;97186.88;;;14.57;88.28
23229;BME280;11783;50.350;6.576;2023-06-24T05:53:56;97178.28;;;14.54;91.30
23229;BME280;11783;50.350;6.576;2023-06-24T05:56:21;97173.56;;;14.62;91.66
23229;BME280;11783;50.350;6.576;2023-06-24T05:58:50;97169.09;;;14.67;93.36
23229;BME280;11783;50.350;6.576;2023-06-24T06:01:16;97180.59;;;14.68;91.32
23229;BME280;11783;50.350;6.576;2023-06-24T06:03:41;97177.13;;;14.67;91.18
23229;BME280;11783;50.350;6.576;2023-06-24T06:06:09;97182.56;;;14.72;91.72
23229;BME280;11783;50.350;6.576;2023-06-24T06:08:34;97184.50;;;14.77;94.46
23229;BME280;11783;50.350;6.576;2023-06-24T06:11:00;97182.38;;;14.79;96.61
23229;BME280;11783;50.350;6.576;2023-06-24T06:13:29;97174.41;;;14.84;95.41
23229;BME280;11783;50.350;6.576;2023-06-24T06:15:55;97173.69;;;14.89;94.50
23229;BME280;11783;50.350;6.576;2023-06-24T06:18:20;97174.75;;;14.88;93.88
23229;BME280;11783;50.350;6.576;2023-06-24T06:20:46;97169.72;;;14.91;94.41
23229;BME280;11783;50.350;6.576;2023-06-24T06:23:11;97172.13;;;14.93;94.82
23229;BME280;11783;50.350;6.576;2023-06-24T06:25:36;97172.94;;;14.93;95.18
23229;BME280;11783;50.350;6.576;2023-06-24T06:28:05;97171.13;;;14.99;95.09
23229;BME280;11783;50.350;6.576;2023-06-24T06:30:30;97165.47;;;14.95;94.85
23229;BME280;11783;50.350;6.576;2023-06-24T06:32:55;97175.69;;;14.98;96.33
23229;BME280;11783;50.350;6.576;2023-06-24T06:35:21;97171.69;;;15.01;98.56
23229;BME280;11783;50.350;6.576;2023-06-24T06:37:46;97162.28;;;14.98;98.33
23229;BME280;11783;50.350;6.576;2023-06-24T06:40:17;97169.03;;;15.01;100.00
23229;BME280;11783;50.350;6.576;2023-06-24T06:42:43;97164.38;;;15.13;100.00
23229;BME280;11783;50.350;6.576;2023-06-24T06:45:08;97166.59;;;15.21;100.00
23229;BME280;11783;50.350;6.576;2023-06-24T06:47:34;97163.53;;;15.34;100.00
23229;BME280;11783;50.350;6.576;2023-06-24T06:49:59;97157.06;;;15.52;100.00
23229;BME280;11783;50.350;6.576;2023-06-24T06:52:24;97157.00;;;15.47;100.00
23229;BME280;11783;50.350;6.576;2023-06-24T06:54:50;97159.88;;;15.62;100.00
23229;BME280;11783;50.350;6.576;2023-06-24T06:57:15;97153.59;;;15.79;100.00
23229;BME280;11783;50.350;6.576;2023-06-24T06:59:40;97162.22;;;15.81;100.00
23229;BME280;11783;50.350;6.576;2023-06-24T07:02:06;97162.28;;;15.91;100.00
23229;BME280;11783;50.350;6.576;2023-06-24T07:04:31;97162.19;;;16.08;100.00
23229;BME280;11783;50.350;6.576;2023-06-24T07:06:57;97168.22;;;16.25;100.00
23229;BME280;11783;50.350;6.576;2023-06-24T07:09:23;97166.47;;;16.41;100.00
23229;BME280;11783;50.350;6.576;2023-06-24T07:11:48;97160.31;;;16.40;100.00
23229;BME280;11783;50.350;6.576;2023-06-24T07:14:13;97163.91;;;16.56;100.00
23229;BME280;11783;50.350;6.576;2023-06-24T07:16:39;97161.06;;;16.68;100.00
23229;BME280;11783;50.350;6.576;2023-06-24T07:19:04;97164.94;;;16.87;100.00
23229;BME280;11783;50.350;6.576;2023-06-24T07:21:29;97161.75;;;16.95;100.00
23229;BME280;11783;50.350;6.576;2023-06-24T07:23:55;97165.03;;;17.07;100.00
23229;BME280;11783;50.350;6.576;2023-06-24T07:26:20;97162.69;;;17.21;100.00
23229;BME280;11783;50.350;6.576;2023-06-24T07:28:46;97168.13;;;17.31;100.00
23229;BME280;11783;50.350;6.576;2023-06-24T07:31:11;97159.28;;;17.46;100.00
23229;BME280;11783;50.350;6.576;2023-06-24T07:33:37;97165.53;;;17.67;100.00
23229;BME280;11783;50.350;6.576;2023-06-24T07:36:02;97164.53;;;17.88;100.00
23229;BME280;11783;50.350;6.576;2023-06-24T07:38:28;97165.09;;;18.05;100.00
23229;BME280;11783;50.350;6.576;2023-06-24T07:40:54;97161.34;;;18.32;100.00
23229;BME280;11783;50.350;6.576;2023-06-24T07:43:19;97171.03;;;18.63;100.00
23229;BME280;11783;50.350;6.576;2023-06-24T07:45:44;97162.91;;;18.89;95.38
23229;BME280;11783;50.350;6.576;2023-06-24T07:48:10;97164.72;;;19.14;93.83
23229;BME280;11783;50.350;6.576;2023-06-24T07:50:35;97163.78;;;19.44;94.96
23229;BME280;11783;50.350;6.576;2023-06-24T07:53:02;97168.50;;;19.77;95.75
23229;BME280;11783;50.350;6.576;2023-06-24T07:55:27;97159.50;;;19.97;87.22
23229;BME280;11783;50.350;6.576;2023-06-24T07:57:53;97158.78;;;20.20;85.58
23229;BME280;11783;50.350;6.576;2023-06-24T08:00:18;97163.69;;;20.52;81.78
23229;BME280;11783;50.350;6.576;2023-06-24T08:02:43;97169.34;;;20.80;80.94
23229;BME280;11783;50.350;6.576;2023-06-24T08:05:09;97174.00;;;21.03;80.52
23229;BME280;11783;50.350;6.576;2023-06-24T08:07:36;97172.69;;;21.25;76.62
23229;BME280;11783;50.350;6.576;2023-06-24T08:10:01;97168.34;;;21.48;75.42
23229;BME280;11783;50.350;6.576;2023-06-24T08:12:27;97167.72;;;21.74;78.96
23229;BME280;11783;50.350;6.576;2023-06-24T08:14:52;97158.16;;;22.01;73.30
23229;BME280;11783;50.350;6.576;2023-06-24T08:17:17;97166.50;;;22.23;70.13
23229;BME280;11783;50.350;6.576;2023-06-24T08:19:43;97165.75;;;22.36;71.49
23229;BME280;11783;50.350;6.576;2023-06-24T08:22:08;97163.00;;;22.55;66.38
23229;BME280;11783;50.350;6.576;2023-06-24T08:24:33;97158.13;;;22.71;66.52
23229;BME280;11783;50.350;6.576;2023-06-24T08:26:59;97155.59;;;22.93;69.57
23229;BME280;11783;50.350;6.576;2023-06-24T08:35:30;97153.88;;;23.52;64.69
23229;BME280;11783;50.350;6.576;2023-06-24T08:37:55;97147.13;;;23.50;60.97
23229;BME280;11783;50.350;6.576;2023-06-24T08:40:20;97153.97;;;23.47;61.98
23229;BME280;11783;50.350;6.576;2023-06-24T08:42:46;97153.47;;;23.45;63.99
23229;BME280;11783;50.350;6.576;2023-06-24T08:45:11;97157.81;;;23.46;62.17
23229;BME280;11783;50.350;6.576;2023-06-24T08:51:00;97148.53;;;23.61;62.25
23229;BME280;11783;50.350;6.576;2023-06-24T08:53:27;97149.25;;;23.67;60.86
23229;BME280;11783;50.350;6.576;2023-06-24T08:55:53;97150.75;;;23.73;56.95
23229;BME280;11783;50.350;6.576;2023-06-24T08:58:19;97154.56;;;23.72;54.19
23229;BME280;11783;50.350;6.576;2023-06-24T09:00:44;97155.72;;;23.93;60.32
23229;BME280;11783;50.350;6.576;2023-06-24T09:03:10;97163.50;;;23.86;54.27
23229;BME280;11783;50.350;6.576;2023-06-24T09:05:36;97159.22;;;23.94;52.84
23229;BME280;11783;50.350;6.576;2023-06-24T09:08:01;97164.41;;;23.81;55.88
23229;BME280;11783;50.350;6.576;2023-06-24T09:10:34;97153.50;;;23.95;55.01
23229;BME280;11783;50.350;6.576;2023-06-24T09:13:05;97145.56;;;24.21;55.95
23229;BME280;11783;50.350;6.576;2023-06-24T09:17:56;97145.84;;;24.56;49.97
23229;BME280;11783;50.350;6.576;2023-06-24T09:20:22;97142.09;;;24.74;52.76
23229;BME280;11783;50.350;6.576;2023-06-24T09:22:48;97129.09;;;24.93;51.69
23229;BME280;11783;50.350;6.576;2023-06-24T09:25:18;97140.94;;;24.97;52.40
23229;BME280;11783;50.350;6.576;2023-06-24T09:27:50;97133.69;;;25.24;49.28
23229;BME280;11783;50.350;6.576;2023-06-24T09:30:22;97126.06;;;25.34;49.88
23229;BME280;11783;50.350;6.576;2023-06-24T09:32:48;97126.53;;;25.36;45.02
23229;BME280;11783;50.350;6.576;2023-06-24T09:35:14;97126.91;;;25.61;45.83
23229;BME280;11783;50.350;6.576;2023-06-24T09:37:39;97122.41;;;25.65;45.59
23229;BME280;11783;50.350;6.576;2023-06-24T09:40:05;97119.91;;;25.69;44.12
23229;BME280;11783;50.350;6.576;2023-06-24T09:42:33;97119.09;;;25.77;45.32
23229;BME280;11783;50.350;6.576;2023-06-24T09:45:04;97118.81;;;25.87;41.91
23229;BME280;11783;50.350;6.576;2023-06-24T09:47:29;97106.47;;;25.89;44.32
23229;BME280;11783;50.350;6.576;2023-06-24T09:49:55;97114.63;;;26.15;45.96
23229;BME280;11783;50.350;6.576;2023-06-24T09:52:21;97113.03;;;26.23;43.68
23229;BME280;11783;50.350;6.576;2023-06-24T09:54:50;97117.66;;;26.31;43.47
23229;BME280;11783;50.350;6.576;2023-06-24T09:57:20;97106.44;;;26.24;41.51
23229;BME280;11783;50.350;6.576;2023-06-24T09:59:49;97112.50;;;26.21;39.91
23229;BME280;11783;50.350;6.576;2023-06-24T10:02:14;97102.44;;;26.13;35.24
23229;BME280;11783;50.350;6.576;2023-06-24T10:04:41;97103.72;;;26.24;39.46
23229;BME280;11783;50.350;6.576;2023-06-24T10:07:08;97109.00;;;26.29;37.48
23229;BME280;11783;50.350;6.576;2023-06-24T10:09:33;97101.94;;;26.28;34.70
23229;BME280;11783;50.350;6.576;2023-06-24T10:11:59;97107.88;;;26.13;37.58
23229;BME280;11783;50.350;6.576;2023-06-24T10:14:25;97107.09;;;26.12;33.32
23229;BME280;11783;50.350;6.576;2023-06-24T10:16:50;97099.22;;;26.19;34.18
23229;BME280;11783;50.350;6.576;2023-06-24T10:19:20;97098.28;;;26.41;36.09
23229;BME280;11783;50.350;6.576;2023-06-24T10:21:58;97095.00;;;26.65;36.38
23229;BME280;11783;50.350;6.576;2023-06-24T10:24:31;97093.34;;;26.73;35.11
23229;BME280;11783;50.350;6.576;2023-06-24T10:27:02;97088.13;;;26.50;30.62
23229;BME280;11783;50.350;6.576;2023-06-24T10:29:32;97083.28;;;26.65;33.91
23229;BME280;11783;50.350;6.576;2023-06-24T10:32:01;97085.34;;;26.68;33.32
23229;BME280;11783;50.350;6.576;2023-06-24T10:34:43;97092.13;;;26.62;32.89
23229;BME280;11783;50.350;6.576;2023-06-24T10:37:18;97083.91;;;26.70;31.73
23229;BME280;11783;50.350;6.576;2023-06-24T10:39:48;97085.00;;;26.78;31.31
23229;BME280;11783;50.350;6.576;2023-06-24T10:44:49;97071.06;;;26.79;34.74
23229;BME280;11783;50.350;6.576;2023-06-24T10:47:15;97071.59;;;26.94;30.85
23229;BME280;11783;50.350;6.576;2023-06-24T10:49:41;97075.94;;;26.95;32.04
23229;BME280;11783;50.350;6.576;2023-06-24T10:52:08;97065.34;;;26.64;31.67
23229;BME280;11783;50.350;6.576;2023-06-24T10:54:34;97071.41;;;26.69;32.86
23229;BME280;11783;50.350;6.576;2023-06-24T10:57:00;97063.59;;;26.97;32.37
23229;BME280;11783;50.350;6.576;2023-06-24T10:59:25;97058.25;;;27.09;30.38
23229;BME280;11783;50.350;6.576;2023-06-24T11:01:54;97066.41;;;27.18;33.25
23229;BME280;11783;50.350;6.576;2023-06-24T11:04:19;97064.13;;;27.20;31.76
23229;BME280;11783;50.350;6.576;2023-06-24T11:07:01;97063.56;;;27.35;28.51
23229;BME280;11783;50.350;6.576;2023-06-24T11:09:27;97057.38;;;27.47;28.96
23229;BME280;11783;50.350;6.576;2023-06-24T11:11:52;97053.97;;;27.50;31.40
23229;BME280;11783;50.350;6.576;2023-06-24T11:14:19;97051.75;;;27.73;30.88
23229;BME280;11783;50.350;6.576;2023-06-24T11:16:45;97049.16;;;27.77;27.67
23229;BME280;11783;50.350;6.576;2023-06-24T11:19:11;97043.53;;;27.94;28.12
23229;BME280;11783;50.350;6.576;2023-06-24T11:21:36;97040.97;;;28.10;29.19
23229;BME280;11783;50.350;6.576;2023-06-24T11:24:05;97051.53;;;27.99;29.84
23229;BME280;11783;50.350;6.576;2023-06-24T11:26:31;97037.97;;;28.02;29.38
23229;BME280;11783;50.350;6.576;2023-06-24T11:28:56;97025.06;;;28.24;30.37
23229;BME280;11783;50.350;6.576;2023-06-24T11:31:27;97026.19;;;28.11;28.60
23229;BME280;11783;50.350;6.576;2023-06-24T11:33:53;97026.16;;;28.31;30.53
23229;BME280;11783;50.350;6.576;2023-06-24T11:36:19;97021.94;;;28.34;29.81
23229;BME280;11783;50.350;6.576;2023-06-24T11:38:48;97028.94;;;28.68;32.64
23229;BME280;11783;50.350;6.576;2023-06-24T11:41:14;97022.56;;;28.64;29.43
23229;BME280;11783;50.350;6.576;2023-06-24T11:43:46;97028.47;;;28.78;29.69
23229;BME280;11783;50.350;6.576;2023-06-24T11:46:23;97028.94;;;28.80;28.55
23229;BME280;11783;50.350;6.576;2023-06-24T11:48:48;97023.25;;;28.98;30.42
23229;BME280;11783;50.350;6.576;2023-06-24T11:51:14;97021.53;;;28.81;27.81
23229;BME280;11783;50.350;6.576;2023-06-24T11:53:43;97004.00;;;28.94;28.83
23229;BME280;11783;50.350;6.576;2023-06-24T11:56:09;97001.03;;;29.11;27.89
23229;BME280;11783;50.350;6.576;2023-06-24T11:58:35;97005.69;;;29.23;28.19
23229;BME280;11783;50.350;6.576;2023-06-24T12:01:01;96998.13;;;29.44;30.23
23229;BME280;11783;50.350;6.576;2023-06-24T12:03:28;97011.72;;;29.29;27.07
23229;BME280;11783;50.350;6.576;2023-06-24T12:05:54;96998.38;;;29.39;26.95
23229;BME280;11783;50.350;6.576;2023-06-24T12:08:19;97005.22;;;29.45;29.39
23229;BME280;11783;50.350;6.576;2023-06-24T12:10:45;96991.59;;;29.37;28.43
23229;BME280;11783;50.350;6.576;2023-06-24T12:13:11;96995.22;;;29.65;30.94
23229;BME280;11783;50.350;6.576;2023-06-24T12:15:37;96984.94;;;29.90;29.65
23229;BME280;11783;50.350;6.576;2023-06-24T12:18:03;96993.88;;;29.87;26.28
23229;BME280;11783;50.350;6.576;2023-06-24T12:20:29;96985.53;;;30.11;27.07
23229;BME280;11783;50.350;6.576;2023-06-24T12:22:54;96980.38;;;30.38;27.57
23229;BME280;11783;50.350;6.576;2023-06-24T12:25:20;96984.34;;;30.56;28.57
23229;BME280;11783;50.350;6.576;2023-06-24T12:27:46;96976.41;;;30.67;27.67
23229;BME280;11783;50.350;6.576;2023-06-24T12:30:13;96979.88;;;30.64;26.67
23229;BME280;11783;50.350;6.576;2023-06-24T12:32:39;96979.94;;;30.36;24.46
23229;BME280;11783;50.350;6.576;2023-06-24T12:35:05;96972.78;;;30.31;24.81
23229;BME280;11783;50.350;6.576;2023-06-24T12:37:32;96970.72;;;30.28;25.64
23229;BME280;11783;50.350;6.576;2023-06-24T12:39:58;96969.56;;;30.45;27.28
23229;BME280;11783;50.350;6.576;2023-06-24T12:42:25;96974.47;;;30.52;27.00
23229;BME280;11783;50.350;6.576;2023-06-24T12:44:50;96974.63;;;30.59;26.53
23229;BME280;11783;50.350;6.576;2023-06-24T12:47:15;96965.34;;;30.79;27.39
23229;BME280;11783;50.350;6.576;2023-06-24T12:49:41;96962.56;;;30.95;24.53
23229;BME280;11783;50.350;6.576;2023-06-24T12:52:06;96973.66;;;30.83;24.15
23229;BME280;11783;50.350;6.576;2023-06-24T12:54:31;96966.47;;;30.94;25.19
23229;BME280;11783;50.350;6.576;2023-06-24T12:56:57;96967.06;;;31.03;25.05
23229;BME280;11783;50.350;6.576;2023-06-24T12:59:22;96967.22;;;31.10;24.50
23229;BME280;11783;50.350;6.576;2023-06-24T13:01:48;96974.31;;;31.11;25.89
23229;BME280;11783;50.350;6.576;2023-06-24T13:04:13;96965.78;;;31.16;24.51
23229;BME280;11783;50.350;6.576;2023-06-24T13:06:38;96966.94;;;31.15;24.71
23229;BME280;11783;50.350;6.576;2023-06-24T13:09:05;96965.41;;;31.33;26.89
23229;BME280;11783;50.350;6.576;2023-06-24T13:11:30;96960.66;;;31.50;25.70
23229;BME280;11783;50.350;6.576;2023-06-24T13:13:56;96954.66;;;31.63;25.68
23229;BME280;11783;50.350;6.576;2023-06-24T13:16:21;96954.44;;;31.72;26.18
23229;BME280;11783;50.350;6.576;2023-06-24T13:18:47;96955.72;;;31.59;22.97